Time;durP1;ratioP1;P1;durP2;ratioP2;P2;SDS_P1;SDS_P2;PMS_P1;PMS_P2;Temp;Humidity;BMP_temperature;BMP_pressure;BME280_temperature;BME280_humidity;BME280_pressure;Samples;Min_cycle;Max_cycle;Signal;HPM_P1;HPM_P2
2021/12/31 00:01:05;;;;;;;17.95;3.88;;;;;;;10.96;100.00;101367.69;4690926;30;20396;-77
2021/12/31 00:03:35;;;;;;;18.40;4.32;;;;;;;10.98;100.00;101370.34;4718459;30;20052;-77
2021/12/31 00:06:05;;;;;;;15.93;3.92;;;;;;;11.00;100.00;101369.50;4714656;30;20055;-77
2021/12/31 00:08:33;;;;;;;19.77;3.70;;;;;;;11.00;100.00;101372.16;4719847;30;20044;-78
2021/12/31 00:11:02;;;;;;;11.85;3.10;;;;;;;11.01;100.00;101368.63;4725691;30;20048;-78
2021/12/31 00:13:30;;;;;;;12.82;4.00;;;;;;;11.03;100.00;101352.81;4758146;30;20058;-78
2021/12/31 00:15:59;;;;;;;20.55;4.35;;;;;;;11.05;100.00;101364.25;4695320;30;20526;-78
2021/12/31 00:18:27;;;;;;;17.65;4.32;;;;;;;11.07;100.00;101365.16;4692697;30;20410;-77
2021/12/31 00:20:56;;;;;;;20.27;4.22;;;;;;;11.09;100.00;101371.31;4694305;30;20052;-76
2021/12/31 00:23:26;;;;;;;22.25;4.00;;;;;;;11.08;100.00;101362.53;4722330;30;20058;-77
2021/12/31 00:25:55;;;;;;;13.10;2.90;;;;;;;11.10;100.00;101366.06;4727617;30;20044;-77
2021/12/31 00:28:24;;;;;;;13.98;3.03;;;;;;;11.11;100.00;101365.22;4732300;30;20051;-77
2021/12/31 00:30:54;;;;;;;14.45;4.13;;;;;;;11.14;100.00;101371.38;4716133;30;20047;-77
2021/12/31 00:33:24;;;;;;;16.38;4.05;;;;;;;11.15;100.00;101362.59;4702083;30;20261;-77
2021/12/31 00:35:52;;;;;;;14.03;3.67;;;;;;;11.14;100.00;101374.03;4747943;30;20048;-78
2021/12/31 00:38:21;;;;;;;17.70;4.85;;;;;;;11.14;100.00;101372.25;4728722;30;20079;-77
2021/12/31 00:40:49;;;;;;;13.77;3.10;;;;;;;11.15;100.00;101367.88;4739473;30;20642;-77
2021/12/31 00:43:19;;;;;;;19.55;4.00;;;;;;;11.14;100.00;101361.72;4757905;30;20268;-77
2021/12/31 00:45:48;;;;;;;12.27;3.25;;;;;;;11.13;100.00;101357.28;4705730;30;20055;-78
2021/12/31 00:48:16;;;;;;;12.93;3.95;;;;;;;11.16;100.00;101367.00;4702131;30;20044;-77
2021/12/31 00:50:45;;;;;;;17.00;3.60;;;;;;;11.15;100.00;101371.38;4734522;30;20044;-76
2021/12/31 00:53:14;;;;;;;20.55;3.53;;;;;;;11.14;100.00;101363.47;4732180;30;20347;-78
2021/12/31 00:55:42;;;;;;;22.33;3.70;;;;;;;11.10;100.00;101368.72;4739096;30;20051;-78
2021/12/31 00:58:10;;;;;;;13.02;3.95;;;;;;;11.09;100.00;101377.47;4728228;30;20266;-77
2021/12/31 01:00:39;;;;;;;15.68;3.53;;;;;;;11.06;100.00;101368.69;4730535;30;20052;-77
2021/12/31 01:03:08;;;;;;;22.42;4.03;;;;;;;11.03;100.00;101373.91;4729200;30;20300;-77
2021/12/31 01:05:36;;;;;;;16.52;3.95;;;;;;;11.01;100.00;101375.66;4746995;30;20052;-77
2021/12/31 01:08:05;;;;;;;15.13;3.78;;;;;;;10.99;100.00;101380.03;4742908;30;20060;-77
2021/12/31 01:10:34;;;;;;;19.08;3.70;;;;;;;10.99;100.00;101377.41;4752265;30;20055;-76
2021/12/31 01:13:08;;;;;;;21.15;4.38;;;;;;;10.97;100.00;101379.13;4740554;30;20509;-77
2021/12/31 01:15:41;;;;;;;16.08;3.80;;;;;;;10.94;100.00;101372.06;4736251;30;20531;-77
2021/12/31 01:20:39;;;;;;;14.10;3.50;;;;;;;10.96;100.00;101380.00;4745428;29;20056;-78
2021/12/31 01:23:09;;;;;;;18.48;4.00;;;;;;;10.96;100.00;101365.03;4746397;30;20249;-77
2021/12/31 01:25:38;;;;;;;17.50;4.18;;;;;;;10.95;100.00;101375.59;4742960;30;20058;-77
2021/12/31 01:28:10;;;;;;;18.58;4.38;;;;;;;10.94;100.00;101379.97;4728322;30;20055;-77
2021/12/31 01:30:38;;;;;;;19.40;3.83;;;;;;;10.95;100.00;101380.88;4729816;30;20039;-77
2021/12/31 01:33:08;;;;;;;13.70;3.42;;;;;;;10.95;100.00;101378.25;4746294;30;20185;-77
2021/12/31 01:35:36;;;;;;;18.13;3.85;;;;;;;10.95;100.00;101381.75;4726296;30;20050;-77
2021/12/31 01:38:08;;;;;;;16.33;3.67;;;;;;;10.95;100.00;101383.50;4731841;30;20052;-77
2021/12/31 01:40:36;;;;;;;14.48;3.97;;;;;;;10.94;100.00;101377.34;4736924;30;20062;-77
2021/12/31 01:43:05;;;;;;;20.60;4.20;;;;;;;10.93;100.00;101387.00;4714638;30;20048;-78
2021/12/31 01:45:43;;;;;;;22.48;4.50;;;;;;;10.93;100.00;101389.63;4724299;30;20047;-79
2021/12/31 01:48:24;;;;;;;17.23;4.00;;;;;;;10.95;100.00;101386.16;4730752;30;20047;-78
2021/12/31 01:50:52;;;;;;;20.70;3.70;;;;;;;10.93;100.00;101381.72;4697020;30;20048;-77
2021/12/31 01:53:22;;;;;;;18.33;3.67;;;;;;;10.95;100.00;101387.03;4759011;30;20264;-76
2021/12/31 01:55:52;;;;;;;17.60;4.40;;;;;;;10.92;100.00;101382.59;4751113;30;20043;-79
2021/12/31 01:58:24;;;;;;;17.00;4.03;;;;;;;10.93;100.00;101389.63;4730853;30;20712;-78
2021/12/31 02:00:53;;;;;;;18.23;4.32;;;;;;;10.94;100.00;101385.25;4744172;30;20052;-80
2021/12/31 02:03:24;;;;;;;20.35;4.43;;;;;;;10.93;100.00;101387.00;4695961;30;20070;-80
2021/12/31 02:05:52;;;;;;;15.82;4.55;;;;;;;10.93;100.00;101381.72;4735649;30;20063;-79
2021/12/31 02:08:21;;;;;;;14.00;3.63;;;;;;;10.96;100.00;101386.13;4738331;30;20066;-81
2021/12/31 02:10:51;;;;;;;11.85;3.55;;;;;;;11.00;100.00;101387.06;4754101;30;20055;-81
2021/12/31 02:13:20;;;;;;;16.48;3.47;;;;;;;11.02;100.00;101385.31;4753864;30;20063;-79
2021/12/31 02:15:49;;;;;;;18.33;3.33;;;;;;;11.03;100.00;101373.91;4742254;30;20058;-79
2021/12/31 02:18:18;;;;;;;21.00;3.70;;;;;;;11.04;100.00;101381.84;4725463;30;20082;-80
2021/12/31 02:20:49;;;;;;;21.77;4.28;;;;;;;11.05;100.00;101369.53;4753192;30;20052;-79
2021/12/31 02:23:24;;;;;;;14.18;3.47;;;;;;;11.04;100.00;101373.03;4759017;30;20176;-79
2021/12/31 02:25:55;;;;;;;13.70;3.75;;;;;;;11.03;100.00;101374.78;4773209;30;20063;-79
2021/12/31 02:28:24;;;;;;;13.75;3.72;;;;;;;11.04;100.00;101376.56;4745818;30;20162;-79
2021/12/31 02:30:54;;;;;;;13.02;4.05;;;;;;;11.03;100.00;101376.56;4738331;30;20048;-79
2021/12/31 02:33:23;;;;;;;13.25;3.10;;;;;;;11.02;100.00;101370.41;4766968;30;20695;-79
2021/12/31 02:35:52;;;;;;;18.50;3.83;;;;;;;11.01;100.00;101380.94;4736835;30;20062;-79
2021/12/31 02:38:20;;;;;;;12.05;3.47;;;;;;;11.02;100.00;101377.41;4702946;30;20039;-79
2021/12/31 02:40:48;;;;;;;14.80;4.25;;;;;;;11.02;100.00;101372.13;4738564;30;20050;-80
2021/12/31 02:43:17;;;;;;;12.88;3.63;;;;;;;11.02;100.00;101370.41;4747388;30;20248;-79
2021/12/31 02:45:48;;;;;;;14.50;3.88;;;;;;;11.03;100.00;101355.44;4761937;30;20051;-80
2021/12/31 02:48:24;;;;;;;13.02;4.05;;;;;;;11.04;100.00;101379.22;4710000;30;20289;-80
2021/12/31 02:50:57;;;;;;;15.35;3.17;;;;;;;11.05;100.00;101375.69;4725213;30;20412;-79
2021/12/31 02:53:31;;;;;;;20.92;4.53;;;;;;;11.08;100.00;101372.22;4714176;30;20078;-80
2021/12/31 02:56:05;;;;;;;18.58;4.07;;;;;;;11.11;100.00;101373.13;4758656;30;20063;-79
2021/12/31 02:58:34;;;;;;;11.60;3.83;;;;;;;11.14;100.00;101367.00;4753969;30;20047;-80
2021/12/31 03:01:06;;;;;;;14.13;4.80;;;;;;;11.18;100.00;101360.88;4743570;30;20056;-80
2021/12/31 03:03:36;;;;;;;20.45;3.80;;;;;;;11.21;100.00;101365.28;4721614;30;20051;-80
2021/12/31 03:06:06;;;;;;;13.88;4.22;;;;;;;11.22;100.00;101352.09;4752993;30;20193;-79
2021/12/31 03:08:46;;;;;;;8.57;3.58;;;;;;;11.25;100.00;101357.41;4752295;30;20054;-79
2021/12/31 03:11:18;;;;;;;18.30;5.28;;;;;;;11.26;100.00;101356.53;4734349;30;20309;-78
2021/12/31 03:13:54;;;;;;;12.52;3.80;;;;;;;11.28;100.00;101354.78;4755930;30;20052;-80
2021/12/31 03:16:23;;;;;;;12.75;3.80;;;;;;;11.29;100.00;101350.41;4723587;30;20263;-79
2021/12/31 03:18:52;;;;;;;12.38;4.03;;;;;;;11.29;100.00;101353.06;4752395;30;20055;-79
2021/12/31 03:21:21;;;;;;;12.57;3.58;;;;;;;11.30;100.00;101344.25;4743701;30;20051;-79
2021/12/31 03:23:54;;;;;;;13.23;3.17;;;;;;;11.30;100.00;101344.25;4739213;30;20063;-78
2021/12/31 03:26:23;;;;;;;16.15;3.75;;;;;;;11.30;100.00;101358.34;4703001;30;20434;-79
2021/12/31 03:28:51;;;;;;;19.48;3.60;;;;;;;11.30;100.00;101358.34;4723248;30;20036;-79
2021/12/31 03:31:20;;;;;;;11.48;2.90;;;;;;;11.34;100.00;101363.63;4762959;30;20777;-81
2021/12/31 03:33:49;;;;;;;15.00;2.88;;;;;;;11.35;100.00;101352.22;4724572;30;20044;-80
2021/12/31 03:36:20;;;;;;;15.15;3.72;;;;;;;11.37;100.00;101343.44;4735526;30;20408;-79
2021/12/31 03:38:48;;;;;;;17.63;3.97;;;;;;;11.38;100.00;101344.31;4734219;30;20040;-78
2021/12/31 03:41:16;;;;;;;9.48;3.40;;;;;;;11.39;100.00;101354.00;4695370;30;20474;-79
2021/12/31 03:43:45;;;;;;;7.78;3.25;;;;;;;11.41;100.00;101341.72;4736783;30;20056;-79
2021/12/31 03:46:14;;;;;;;19.85;3.70;;;;;;;11.45;100.00;101346.13;4716808;30;20451;-80
2021/12/31 03:48:43;;;;;;;10.80;2.95;;;;;;;11.45;100.00;101335.56;4754146;30;20048;-80
2021/12/31 03:51:12;;;;;;;8.57;3.25;;;;;;;11.46;100.00;101334.72;4732255;30;20265;-79
2021/12/31 03:53:40;;;;;;;10.98;3.20;;;;;;;11.47;100.00;101326.81;4770159;30;20059;-80
2021/12/31 03:56:09;;;;;;;9.88;3.63;;;;;;;11.48;100.00;101325.94;4730489;30;20064;-80
2021/12/31 03:58:38;;;;;;;15.70;3.50;;;;;;;11.48;100.00;101317.13;4768185;30;20075;-79
2021/12/31 04:01:06;;;;;;;10.45;2.88;;;;;;;11.49;100.00;101306.59;4734921;30;20368;-79
2021/12/31 04:03:35;;;;;;;9.60;3.15;;;;;;;11.49;100.00;101317.16;4724226;30;20400;-80
2021/12/31 04:06:03;;;;;;;10.38;2.95;;;;;;;11.50;100.00;101312.75;4732229;30;20519;-79
2021/12/31 04:08:32;;;;;;;7.70;2.92;;;;;;;11.52;100.00;101306.59;4744985;30;20051;-79
2021/12/31 04:11:01;;;;;;;11.73;3.50;;;;;;;11.54;100.00;101303.09;4728216;30;20066;-79
2021/12/31 04:13:29;;;;;;;7.80;3.00;;;;;;;11.54;100.00;101308.38;4693649;30;20056;-80
2021/12/31 04:15:58;;;;;;;8.60;2.90;;;;;;;11.55;100.00;101310.13;4733406;30;20056;-80
2021/12/31 04:18:26;;;;;;;10.13;3.08;;;;;;;11.54;100.00;101303.97;4752400;30;20086;-80
2021/12/31 04:20:57;;;;;;;10.88;3.40;;;;;;;11.54;100.00;101300.44;4735058;30;20055;-78
2021/12/31 04:23:37;;;;;;;9.50;3.15;;;;;;;11.50;100.00;101292.50;4734978;30;20060;-78
2021/12/31 04:26:06;;;;;;;9.95;3.05;;;;;;;11.51;100.00;101293.38;4742293;30;20044;-79
2021/12/31 04:28:34;;;;;;;10.43;3.25;;;;;;;11.52;100.00;101305.72;4713952;30;20059;-79
2021/12/31 04:31:04;;;;;;;14.45;3.30;;;;;;;11.49;100.00;101309.22;4729089;30;20429;-79
2021/12/31 04:33:33;;;;;;;12.73;2.33;;;;;;;11.50;100.00;101302.19;4729719;30;20059;-80
2021/12/31 04:36:01;;;;;;;10.23;2.85;;;;;;;11.50;100.00;101312.75;4749701;30;20520;-79
2021/12/31 04:38:30;;;;;;;11.30;3.47;;;;;;;11.50;100.00;101323.31;4751865;30;20079;-79
2021/12/31 04:41:01;;;;;;;14.02;2.63;;;;;;;11.48;100.00;101307.44;4746478;30;20059;-79
2021/12/31 04:43:30;;;;;;;9.48;2.63;;;;;;;11.49;100.00;101300.41;4727851;30;20036;-80
2021/12/31 04:45:59;;;;;;;11.32;2.28;;;;;;;11.49;100.00;101297.78;4750576;30;20406;-79
2021/12/31 04:48:27;;;;;;;6.82;3.00;;;;;;;11.50;100.00;101307.47;4741345;30;20060;-80
2021/12/31 04:50:56;;;;;;;13.13;2.97;;;;;;;11.50;100.00;101287.22;4744106;30;20051;-80
2021/12/31 04:53:24;;;;;;;9.35;2.85;;;;;;;11.51;100.00;101296.03;4719517;30;20056;-80
2021/12/31 04:55:53;;;;;;;9.98;2.58;;;;;;;11.51;100.00;101294.28;4755235;30;20055;-79
2021/12/31 04:58:21;;;;;;;9.90;2.97;;;;;;;11.55;100.00;101308.38;4718446;30;20292;-79
2021/12/31 05:00:50;;;;;;;10.57;3.28;;;;;;;11.58;100.00;101305.75;4754955;30;20040;-79
2021/12/31 05:03:20;;;;;;;10.63;2.85;;;;;;;11.61;100.00;101297.88;4747366;30;20055;-80
2021/12/31 05:05:47;;;;;;;7.95;2.53;;;;;;;11.62;100.00;101298.75;4738088;30;20071;-79
2021/12/31 05:08:16;;;;;;;7.68;2.67;;;;;;;11.63;100.00;101292.59;4734793;30;20055;-78
2021/12/31 05:10:44;;;;;;;6.70;2.42;;;;;;;11.63;100.00;101279.41;4740171;30;20050;-79
2021/12/31 05:13:15;;;;;;;9.00;2.50;;;;;;;11.62;100.00;101261.78;4717766;30;20143;-79
2021/12/31 05:15:46;;;;;;;8.05;2.47;;;;;;;11.61;100.00;101263.53;4739467;30;20052;-80
2021/12/31 05:18:15;;;;;;;;;;;;;;;11.59;100.00;101257.38;4739750;30;20650;-78
2021/12/31 05:20:43;;;;;;;10.13;2.42;;;;;;;11.60;100.00;101263.53;4754441;30;20388;-79
2021/12/31 05:23:12;;;;;;;7.72;2.53;;;;;;;11.61;100.00;101263.53;4748466;30;20043;-79
2021/12/31 05:25:40;;;;;;;10.77;2.47;;;;;;;11.62;100.00;101264.41;4739488;30;20048;-81
2021/12/31 05:28:09;;;;;;;6.75;2.45;;;;;;;11.62;100.00;101252.09;4738437;30;21098;-79
2021/12/31 05:30:37;;;;;;;8.75;2.20;;;;;;;11.66;100.00;101255.63;4737619;30;20411;-79
2021/12/31 05:33:06;;;;;;;9.02;3.03;;;;;;;11.68;100.00;101254.78;4735163;30;20055;-79
2021/12/31 05:35:37;;;;;;;8.35;2.60;;;;;;;11.70;100.00;101247.75;4723696;30;20063;-80
2021/12/31 05:38:05;;;;;;;6.03;2.08;;;;;;;11.74;100.00;101258.31;4752056;30;20356;-79
2021/12/31 05:40:34;;;;;;;7.32;2.58;;;;;;;11.73;100.00;101252.16;4740195;30;20048;-79
2021/12/31 05:43:03;;;;;;;7.50;2.17;;;;;;;11.73;100.00;101249.53;4723944;30;20040;-79
2021/12/31 05:45:31;;;;;;;5.38;2.10;;;;;;;11.73;100.00;101259.22;4732697;30;20404;-80
2021/12/31 05:48:20;;;;;;;6.72;2.65;;;;;;;11.73;100.00;101259.22;4724281;30;20060;-80
2021/12/31 05:50:48;;;;;;;3.47;2.38;;;;;;;11.69;100.00;101269.75;4737784;30;20048;-79
2021/12/31 05:53:16;;;;;;;5.20;2.20;;;;;;;11.69;100.00;101261.81;4731229;30;20078;-79
2021/12/31 05:55:45;;;;;;;5.30;2.63;;;;;;;11.66;100.00;101250.34;4765760;30;20048;-80
2021/12/31 05:58:14;;;;;;;5.13;2.50;;;;;;;11.64;100.00;101257.38;4744754;30;20066;-79
2021/12/31 06:00:43;;;;;;;6.40;2.47;;;;;;;11.61;100.00;101231.88;4717414;30;20051;-78
2021/12/31 06:03:11;;;;;;;6.30;2.67;;;;;;;11.58;100.00;101244.16;4734860;30;20048;-79
2021/12/31 06:05:40;;;;;;;4.25;2.20;;;;;;;11.56;100.00;101246.78;4730331;30;20048;-80
2021/12/31 06:08:09;;;;;;;10.70;2.83;;;;;;;11.55;100.00;101249.41;4751482;30;20260;-79
2021/12/31 06:10:42;;;;;;;9.23;3.10;;;;;;;11.55;100.00;101255.59;4724052;30;20055;-79
2021/12/31 06:13:12;;;;;;;7.55;2.20;;;;;;;11.58;100.00;101262.66;4749613;30;20158;-79
2021/12/31 06:15:44;;;;;;;4.80;2.65;;;;;;;11.59;100.00;101256.50;4727843;30;20052;-80
2021/12/31 06:18:13;;;;;;;4.70;2.95;;;;;;;11.60;100.00;101269.69;4735250;30;20281;-79
2021/12/31 06:20:42;;;;;;;5.05;2.40;;;;;;;11.59;100.00;101265.28;4737166;30;20055;-79
2021/12/31 06:23:10;;;;;;;5.53;2.88;;;;;;;11.61;100.00;101253.00;4727918;30;20754;-81
2021/12/31 06:25:39;;;;;;;7.60;2.60;;;;;;;11.61;100.00;101263.53;4705816;30;20048;-79
2021/12/31 06:28:07;;;;;;;9.30;3.33;;;;;;;11.61;100.00;101263.53;4732901;30;20193;-80
2021/12/31 06:30:36;;;;;;;5.80;2.55;;;;;;;11.61;100.00;101266.19;4718402;30;20040;-79
2021/12/31 06:33:05;;;;;;;5.30;2.88;;;;;;;11.62;100.00;101265.28;4728666;30;20344;-79
2021/12/31 06:35:34;;;;;;;4.93;2.67;;;;;;;11.63;100.00;101267.06;4708701;30;20056;-79
2021/12/31 06:38:03;;;;;;;3.58;2.35;;;;;;;11.63;100.00;101256.50;4749765;30;20067;-79
2021/12/31 06:40:34;;;;;;;5.38;3.25;;;;;;;11.65;100.00;101251.25;4738125;30;20055;-79
2021/12/31 06:43:03;;;;;;;;;;;;;;;11.63;100.00;101245.97;4714959;30;20388;-79
2021/12/31 06:45:31;;;;;;;5.63;2.22;;;;;;;11.63;100.00;101245.97;4696105;30;19948;-79
2021/12/31 06:48:00;;;;;;;4.05;2.20;;;;;;;11.64;100.00;101244.19;4700069;30;20060;-80
2021/12/31 06:50:32;;;;;;;4.80;2.70;;;;;;;11.64;100.00;101252.09;4732725;30;20055;-79
2021/12/31 06:53:02;;;;;;;11.18;2.97;;;;;;;11.65;100.00;101245.97;4734908;30;20411;-79
2021/12/31 06:55:32;;;;;;;5.40;2.65;;;;;;;11.67;100.00;101257.41;4705425;30;20048;-79
2021/12/31 06:58:01;;;;;;;6.55;3.05;;;;;;;11.67;100.00;101258.28;4716118;30;20522;-80
2021/12/31 07:00:29;;;;;;;3.25;2.30;;;;;;;11.69;100.00;101242.47;4728880;30;20431;-79
2021/12/31 07:03:06;;;;;;;5.15;2.60;;;;;;;11.69;100.00;101245.97;4714464;30;20530;-78
2021/12/31 07:05:35;;;;;;;6.53;2.83;;;;;;;11.68;100.00;101256.53;4729421;30;20063;-79
2021/12/31 07:08:04;;;;;;;6.20;2.40;;;;;;;11.66;100.00;101251.25;4729617;30;20063;-79
2021/12/31 07:10:34;;;;;;;5.53;2.70;;;;;;;11.64;100.00;101263.53;4703411;30;20048;-79
2021/12/31 07:13:05;;;;;;;7.45;3.15;;;;;;;11.64;100.00;101263.53;4742000;30;20045;-80
2021/12/31 07:15:33;;;;;;;6.05;2.25;;;;;;;11.65;100.00;101249.47;4707216;30;20408;-78
2021/12/31 07:18:02;;;;;;;7.22;2.33;;;;;;;11.65;100.00;101265.31;4714719;30;20060;-80
2021/12/31 07:20:36;;;;;;;7.05;2.40;;;;;;;11.64;100.00;101255.63;4738627;30;20052;-79
2021/12/31 07:23:10;;;;;;;7.00;2.45;;;;;;;11.62;100.00;101243.31;4708970;30;20422;-79
2021/12/31 07:25:39;;;;;;;5.75;2.67;;;;;;;11.62;100.00;101252.09;4739776;30;20063;-80
2021/12/31 07:28:09;;;;;;;4.65;2.33;;;;;;;11.61;100.00;101239.78;4718234;30;20044;-79
2021/12/31 07:30:39;;;;;;;4.13;2.55;;;;;;;11.59;100.00;101249.47;4736235;30;20055;-79
2021/12/31 07:33:23;;;;;;;7.68;2.58;;;;;;;11.59;100.00;101244.19;4708494;30;20396;-80
2021/12/31 07:35:52;;;;;;;7.03;2.67;;;;;;;11.59;100.00;101253.88;4749978;30;20048;-80
2021/12/31 07:38:24;;;;;;;4.70;2.20;;;;;;;11.57;100.00;101239.75;4733911;30;20437;-79
2021/12/31 07:40:53;;;;;;;3.55;2.33;;;;;;;11.56;100.00;101257.34;4762842;30;20051;-79
2021/12/31 07:43:22;;;;;;;3.92;2.47;;;;;;;11.57;100.00;101261.78;4744094;30;20063;-79
2021/12/31 07:45:51;;;;;;;5.20;2.65;;;;;;;11.56;100.00;101249.44;4748911;30;20060;-79
2021/12/31 07:48:21;;;;;;;5.18;2.42;;;;;;;11.55;100.00;101252.97;4689764;30;20525;-79
2021/12/31 07:50:50;;;;;;;7.30;2.10;;;;;;;11.52;100.00;101263.50;4751629;30;20032;-80
2021/12/31 07:53:19;;;;;;;3.88;2.38;;;;;;;11.51;100.00;101272.25;4762492;30;20062;-79
2021/12/31 07:55:50;;;;;;;5.53;2.45;;;;;;;11.51;100.00;101272.25;4767251;30;20048;-79
2021/12/31 07:58:18;;;;;;;3.83;2.38;;;;;;;11.47;100.00;101275.75;4750635;30;20684;-79
2021/12/31 08:00:47;;;;;;;6.75;2.40;;;;;;;11.45;100.00;101275.75;4709312;30;20058;-79
2021/12/31 08:03:18;;;;;;;3.78;2.33;;;;;;;11.44;100.00;101292.47;4718903;30;20066;-79
2021/12/31 08:05:47;;;;;;;6.75;2.33;;;;;;;11.43;100.00;101284.53;4746690;30;20054;-80
2021/12/31 08:08:15;;;;;;;5.85;2.28;;;;;;;11.43;100.00;101295.97;4735256;30;20052;-79
2021/12/31 08:10:44;;;;;;;5.78;2.60;;;;;;;11.43;100.00;101309.16;4721606;30;20288;-79
2021/12/31 08:13:25;;;;;;;6.93;2.20;;;;;;;11.45;100.00;101303.91;4751384;30;20418;-80
2021/12/31 08:15:54;;;;;;;;;;;;;;;11.43;100.00;101298.59;4752965;30;20423;-80
2021/12/31 08:18:23;;;;;;;3.42;2.38;;;;;;;11.43;100.00;101301.25;4757042;30;19926;-79
2021/12/31 08:20:51;;;;;;;4.15;2.10;;;;;;;11.43;100.00;101317.09;4736935;30;20044;-79
2021/12/31 08:23:20;;;;;;;6.20;2.42;;;;;;;11.43;100.00;101314.44;4735586;30;20052;-80
2021/12/31 08:25:48;;;;;;;2.50;2.13;;;;;;;11.44;100.00;101328.53;4733805;30;20047;-81
2021/12/31 08:28:17;;;;;;;2.97;1.90;;;;;;;11.47;100.00;101336.47;4753306;30;20044;-79
2021/12/31 08:30:45;;;;;;;2.53;1.90;;;;;;;11.50;100.00;101328.56;4727420;30;20089;-79
2021/12/31 08:33:14;;;;;;;6.35;2.80;;;;;;;11.53;100.00;101336.53;4760961;30;20051;-79
2021/12/31 08:35:42;;;;;;;4.18;2.47;;;;;;;11.57;100.00;101326.84;4734280;30;20589;-79
2021/12/31 08:38:11;;;;;;;4.82;2.40;;;;;;;11.58;100.00;101320.72;4738163;30;20048;-80
2021/12/31 08:40:40;;;;;;;4.70;2.20;;;;;;;11.61;100.00;101318.09;4736038;30;20059;-79
2021/12/31 08:43:09;;;;;;;3.10;2.05;;;;;;;11.59;100.00;101322.50;4748499;30;20133;-78
2021/12/31 08:45:38;;;;;;;3.80;1.80;;;;;;;11.59;100.00;101315.44;4743766;30;20446;-79
2021/12/31 08:48:07;;;;;;;5.63;2.33;;;;;;;11.58;100.00;101295.19;4724327;30;20063;-80
2021/12/31 08:50:35;;;;;;;4.65;2.38;;;;;;;11.57;100.00;101297.81;4751355;30;20052;-79
2021/12/31 08:53:05;;;;;;;4.40;2.03;;;;;;;11.57;100.00;101306.63;4722802;30;20048;-79
2021/12/31 08:55:34;;;;;;;5.47;2.45;;;;;;;11.60;100.00;101325.13;4763410;30;20052;-79
2021/12/31 08:58:03;;;;;;;2.95;1.90;;;;;;;11.59;100.00;101312.81;4752861;30;20059;-79
2021/12/31 09:00:32;;;;;;;6.72;2.58;;;;;;;11.62;100.00;101312.81;4751921;30;20064;-79
2021/12/31 09:03:01;;;;;;;4.60;2.05;;;;;;;11.62;100.00;101307.53;4756573;30;20055;-79
2021/12/31 09:05:30;;;;;;;4.20;2.33;;;;;;;11.63;100.00;101316.34;4717160;30;20052;-79
2021/12/31 09:08:00;;;;;;;4.55;2.67;;;;;;;11.65;100.00;101322.53;4749764;30;20511;-79
2021/12/31 09:10:29;;;;;;;4.25;2.10;;;;;;;11.65;100.00;101318.13;4727187;30;20055;-79
2021/12/31 09:12:57;;;;;;;3.63;2.40;;;;;;;11.68;100.00;101322.53;4738230;30;20079;-80
2021/12/31 09:15:26;;;;;;;6.03;2.85;;;;;;;11.67;100.00;101331.34;4753478;30;20055;-80
2021/12/31 09:17:59;;;;;;;3.40;2.60;;;;;;;11.65;100.00;101326.03;4725528;30;20060;-79
2021/12/31 09:20:29;;;;;;;5.78;3.28;;;;;;;11.64;100.00;101332.19;4724050;30;20057;-80
2021/12/31 09:22:57;;;;;;;4.53;2.70;;;;;;;11.64;100.00;101340.09;4740944;30;20055;-79
2021/12/31 09:25:26;;;;;;;6.68;2.80;;;;;;;11.63;100.00;101325.16;4717474;30;20054;-78
2021/12/31 09:27:54;;;;;;;4.03;2.70;;;;;;;11.64;100.00;101348.00;4752961;30;20104;-80
2021/12/31 09:30:23;;;;;;;4.43;3.08;;;;;;;11.64;100.00;101350.66;4739232;30;20060;-79
2021/12/31 09:32:54;;;;;;;7.80;3.20;;;;;;;11.64;100.00;101342.75;4729357;30;20066;-79
2021/12/31 09:35:23;;;;;;;4.47;2.83;;;;;;;11.63;100.00;101342.75;4754229;30;20052;-78
2021/12/31 09:37:52;;;;;;;4.95;2.58;;;;;;;11.62;100.00;101348.88;4735499;30;20036;-78
2021/12/31 09:40:20;;;;;;;2.90;2.60;;;;;;;11.62;100.00;101355.03;4714635;30;20051;-78
2021/12/31 09:43:04;;;;;;;4.60;2.90;;;;;;;11.63;100.00;101356.81;4743402;30;20052;-80
2021/12/31 09:45:35;;;;;;;6.25;3.15;;;;;;;11.62;100.00;101359.44;4733325;30;20056;-78
2021/12/31 09:48:13;;;;;;;2.72;2.15;;;;;;;11.64;100.00;101357.69;4753026;30;20043;-79
2021/12/31 09:50:44;;;;;;;4.95;2.83;;;;;;;11.64;100.00;101365.63;4729449;30;20511;-79
2021/12/31 09:53:14;;;;;;;8.38;2.60;;;;;;;11.63;100.00;101359.47;4769614;30;20052;-78
2021/12/31 09:55:48;;;;;;;4.50;2.73;;;;;;;11.62;100.00;101364.72;4712126;30;20283;-78
2021/12/31 09:58:18;;;;;;;6.00;2.92;;;;;;;11.62;100.00;101370.88;4740120;30;20321;-79
2021/12/31 10:00:52;;;;;;;7.18;3.58;;;;;;;11.62;100.00;101367.38;4731168;30;20032;-78
2021/12/31 10:03:26;;;;;;;5.65;2.78;;;;;;;11.60;100.00;101358.56;4736665;30;20063;-78
2021/12/31 10:06:07;;;;;;;9.70;4.03;;;;;;;11.60;100.00;101361.19;4723283;30;21906;-79
2021/12/31 10:08:44;;;;;;;8.40;3.67;;;;;;;11.59;100.00;101375.28;4746575;30;20047;-79
2021/12/31 10:11:17;;;;;;;9.00;3.25;;;;;;;11.57;100.00;101363.81;4695242;30;20067;-80
2021/12/31 10:13:56;;;;;;;5.30;3.33;;;;;;;11.52;100.00;101379.63;4738317;30;20185;-78
2021/12/31 10:16:27;;;;;;;8.02;3.08;;;;;;;11.46;100.00;101371.66;4741321;30;20056;-78
2021/12/31 10:19:07;;;;;;;7.57;3.22;;;;;;;11.39;100.00;101357.50;4744766;30;20048;-80
2021/12/31 10:21:42;;;;;;;7.10;3.35;;;;;;;11.32;100.00;101367.16;4756790;30;20251;-78
2021/12/31 10:24:26;;;;;;;7.95;2.92;;;;;;;11.30;100.00;101362.72;4739620;30;20060;-80
2021/12/31 10:26:57;;;;;;;9.48;2.97;;;;;;;11.27;100.00;101357.44;4728214;30;20056;-80
2021/12/31 10:29:26;;;;;;;;;;;;;;;11.23;100.00;101353.00;4731634;30;20051;-79
2021/12/31 10:31:55;;;;;;;7.35;3.33;;;;;;;11.19;100.00;101352.09;4735751;30;19952;-79
2021/12/31 10:34:24;;;;;;;9.23;3.78;;;;;;;11.16;100.00;101348.53;4761320;30;20406;-78
2021/12/31 10:36:53;;;;;;;9.02;3.75;;;;;;;11.12;100.00;101345.88;4744101;30;20060;-79
2021/12/31 10:39:24;;;;;;;7.43;3.65;;;;;;;11.09;100.00;101345.81;4729448;30;20051;-79
2021/12/31 10:42:03;;;;;;;5.57;3.65;;;;;;;11.05;100.00;101362.50;4752998;30;20438;-79
2021/12/31 10:44:50;;;;;;;7.00;3.55;;;;;;;11.04;100.00;101354.56;4732626;30;20067;-78
2021/12/31 10:47:42;;;;;;;7.78;3.30;;;;;;;11.02;100.00;101354.56;4772663;30;20067;-79
2021/12/31 10:50:19;;;;;;;5.97;3.42;;;;;;;11.01;100.00;101359.84;4765298;30;20060;-81
2021/12/31 10:52:55;;;;;;;6.18;3.67;;;;;;;11.00;100.00;101358.06;4766455;30;20344;-78
2021/12/31 10:55:29;;;;;;;5.85;3.42;;;;;;;11.01;100.00;101355.44;4731914;30;20048;-79
2021/12/31 10:58:04;;;;;;;7.68;3.63;;;;;;;11.02;100.00;101362.50;4741745;30;20495;-79
2021/12/31 11:00:37;;;;;;;10.18;3.85;;;;;;;11.03;100.00;101350.19;4706468;30;20044;-78
2021/12/31 11:03:07;;;;;;;9.35;3.58;;;;;;;11.04;100.00;101344.00;4749625;30;20052;-79
2021/12/31 11:05:36;;;;;;;4.00;3.50;;;;;;;11.07;100.00;101344.06;4744501;30;20047;-79
2021/12/31 11:08:10;;;;;;;6.03;3.83;;;;;;;11.09;100.00;101353.75;4769842;30;20052;-79
2021/12/31 11:10:41;;;;;;;8.85;4.40;;;;;;;11.11;100.00;101356.41;4761011;30;20070;-78
2021/12/31 11:13:18;;;;;;;8.80;3.60;;;;;;;11.09;100.00;101352.88;4732185;30;20044;-78
2021/12/31 11:15:52;;;;;;;8.20;3.40;;;;;;;11.09;100.00;101348.47;4719177;30;20097;-78
2021/12/31 11:18:24;;;;;;;7.85;4.43;;;;;;;11.10;100.00;101344.09;4760190;30;20048;-79
2021/12/31 11:21:01;;;;;;;6.10;3.28;;;;;;;11.11;100.00;101344.13;4735807;30;20387;-78
2021/12/31 11:23:31;;;;;;;12.85;3.88;;;;;;;11.11;100.00;101340.56;4739317;30;20048;-79
2021/12/31 11:26:04;;;;;;;;;;;;;;;11.09;100.00;101339.69;4730580;30;20064;-77
2021/12/31 11:28:36;;;;;;;9.15;4.00;;;;;;;11.08;100.00;101340.56;4718534;30;19933;-79
2021/12/31 11:31:18;;;;;;;6.47;3.83;;;;;;;11.07;100.00;101336.16;4715203;30;20048;-78